createdAt,value
2022-08-19T00:01:31.653Z,20.70
2022-08-19T00:04:00.136Z,20.70
2022-08-19T00:06:29.243Z,20.70
2022-08-19T00:08:57.930Z,20.70
2022-08-19T00:11:28.424Z,20.70
2022-08-19T00:13:57.453Z,20.70
2022-08-19T00:16:26.498Z,20.70
2022-08-19T00:18:57.248Z,20.70
2022-08-19T00:21:25.711Z,20.70
2022-08-19T00:23:52.933Z,20.70
2022-08-19T00:26:20.255Z,20.70
2022-08-19T00:28:47.970Z,20.70
2022-08-19T00:31:14.773Z,20.70
2022-08-19T00:33:42.064Z,20.80
2022-08-19T00:36:10.321Z,20.70
2022-08-19T00:38:38.919Z,20.70
2022-08-19T00:41:07.021Z,20.70
2022-08-19T00:43:34.072Z,20.70
2022-08-19T00:46:02.341Z,20.70
2022-08-19T00:48:29.173Z,20.70
2022-08-19T00:50:56.465Z,20.70
2022-08-19T00:53:27.386Z,20.60
2022-08-19T00:55:56.910Z,20.60
2022-08-19T00:58:28.338Z,20.50
2022-08-19T01:00:55.402Z,20.50
2022-08-19T01:03:23.403Z,20.50
2022-08-19T01:05:51.907Z,20.50
2022-08-19T01:08:19.872Z,20.40
2022-08-19T01:10:56.327Z,20.40
2022-08-19T01:13:27.599Z,20.40
2022-08-19T01:16:13.051Z,20.40
2022-08-19T01:18:42.733Z,20.40
2022-08-19T01:21:26.547Z,20.40
2022-08-19T01:23:53.391Z,20.40
2022-08-19T01:26:24.729Z,20.40
2022-08-19T01:28:57.365Z,20.40
2022-08-19T01:31:32.458Z,20.30
2022-08-19T01:34:00.812Z,20.30
2022-08-19T01:36:42.893Z,20.20
2022-08-19T01:39:12.672Z,20.20
2022-08-19T01:41:39.690Z,20.20
2022-08-19T01:44:16.941Z,20.20
2022-08-19T01:46:48.530Z,20.20
2022-08-19T01:49:16.781Z,20.20
2022-08-19T01:51:43.551Z,20.10
2022-08-19T01:54:11.344Z,20.10
2022-08-19T01:56:38.099Z,20.10
2022-08-19T01:59:13.079Z,20.10
2022-08-19T02:01:40.042Z,20.00
2022-08-19T02:04:06.835Z,20.00
2022-08-19T02:06:34.106Z,19.90
2022-08-19T02:09:01.197Z,19.90
2022-08-19T02:11:34.545Z,19.90
2022-08-19T02:14:07.161Z,19.80
2022-08-19T02:16:34.829Z,19.80
2022-08-19T02:19:01.782Z,19.70
2022-08-19T02:21:29.574Z,19.70
2022-08-19T02:23:56.871Z,19.70
2022-08-19T02:26:24.374Z,19.70
2022-08-19T02:28:51.107Z,19.70
2022-08-19T02:31:20.613Z,19.70
2022-08-19T02:33:48.959Z,19.70
2022-08-19T02:36:17.203Z,19.70
2022-08-19T02:38:54.503Z,19.60
2022-08-19T02:41:28.524Z,19.60
2022-08-19T02:44:26.615Z,19.60
2022-08-19T02:46:53.259Z,19.50
2022-08-19T02:49:20.656Z,19.40
2022-08-19T02:51:47.908Z,19.40
2022-08-19T02:54:16.482Z,19.50
2022-08-19T02:56:44.526Z,19.50
2022-08-19T02:59:12.291Z,19.40
2022-08-19T03:01:41.906Z,19.40
2022-08-19T03:04:10.864Z,19.30
2022-08-19T03:06:40.262Z,19.30
2022-08-19T03:09:06.983Z,19.30
2022-08-19T03:11:34.475Z,19.30
2022-08-19T03:14:02.362Z,19.40
2022-08-19T03:16:33.549Z,19.30
2022-08-19T03:19:01.931Z,19.40
2022-08-19T03:21:31.415Z,19.30
2022-08-19T03:24:01.021Z,19.30
2022-08-19T03:26:28.053Z,19.30
2022-08-19T03:28:58.020Z,19.30
2022-08-19T03:31:44.049Z,19.30
2022-08-19T03:34:19.305Z,19.30
2022-08-19T03:36:46.745Z,19.30
2022-08-19T03:39:14.826Z,19.30
2022-08-19T03:41:45.196Z,19.30
2022-08-19T03:44:19.139Z,19.30
2022-08-19T03:46:49.368Z,19.30
2022-08-19T03:49:18.262Z,19.20
2022-08-19T03:51:46.554Z,19.20
2022-08-19T03:54:16.343Z,19.20
2022-08-19T03:56:45.136Z,19.20
2022-08-19T03:59:17.018Z,19.20
2022-08-19T04:01:44.083Z,19.10
2022-08-19T04:04:10.913Z,19.10
2022-08-19T04:06:39.622Z,19.10
2022-08-19T04:09:09.441Z,19.10
2022-08-19T04:11:44.523Z,19.20
2022-08-19T04:14:20.524Z,19.20
2022-08-19T04:16:48.879Z,19.20
2022-08-19T04:19:17.568Z,19.10
2022-08-19T04:21:46.371Z,19.20
2022-08-19T04:24:14.124Z,19.20
2022-08-19T04:26:41.056Z,19.10
2022-08-19T04:29:12.800Z,19.10
2022-08-19T04:31:41.302Z,19.10
2022-08-19T04:34:11.839Z,19.20
2022-08-19T04:36:40.666Z,19.20
2022-08-19T04:39:12.806Z,19.20
2022-08-19T04:41:58.507Z,19.10
2022-08-19T04:44:26.497Z,19.10
2022-08-19T04:46:53.677Z,19.10
2022-08-19T04:49:23.202Z,19.10
2022-08-19T04:51:55.119Z,19.00
2022-08-19T04:54:37.080Z,19.00
2022-08-19T04:57:07.578Z,19.00
2022-08-19T04:59:34.841Z,19.10
2022-08-19T05:02:01.563Z,19.10
2022-08-19T05:04:31.539Z,19.10
2022-08-19T05:07:00.006Z,19.10
2022-08-19T05:09:28.341Z,19.10
2022-08-19T05:12:09.042Z,19.10
2022-08-19T05:14:37.518Z,19.00
2022-08-19T05:17:26.083Z,18.90
2022-08-19T05:20:09.490Z,18.90
2022-08-19T05:22:36.498Z,18.90
2022-08-19T05:25:12.982Z,18.90
2022-08-19T05:27:41.471Z,19.00
2022-08-19T05:30:08.823Z,19.00
2022-08-19T05:32:36.013Z,19.10
2022-08-19T05:35:02.979Z,19.10
2022-08-19T05:37:30.043Z,19.20
2022-08-19T05:39:56.816Z,19.10
2022-08-19T05:42:24.270Z,19.30
2022-08-19T05:44:51.768Z,19.20
2022-08-19T05:47:20.684Z,19.20
2022-08-19T05:49:48.310Z,19.20
2022-08-19T05:52:19.325Z,19.30
2022-08-19T05:54:51.237Z,19.30
2022-08-19T05:57:20.180Z,19.40
2022-08-19T05:59:49.377Z,19.50
2022-08-19T06:02:20.501Z,19.50
2022-08-19T06:04:47.330Z,19.50
2022-08-19T06:07:14.002Z,19.50
2022-08-19T06:09:43.689Z,19.60
2022-08-19T06:12:21.905Z,19.50
2022-08-19T06:14:48.622Z,19.60
2022-08-19T06:17:28.306Z,19.60
2022-08-19T06:19:54.953Z,19.70
2022-08-19T06:22:21.729Z,19.70
2022-08-19T06:24:48.531Z,19.60
2022-08-19T06:27:16.323Z,19.60
2022-08-19T06:29:43.398Z,19.70
2022-08-19T06:32:10.126Z,19.70
2022-08-19T06:34:36.880Z,19.50
2022-08-19T06:37:04.206Z,19.50
2022-08-19T06:39:33.957Z,19.50
2022-08-19T06:42:04.082Z,19.50
2022-08-19T06:44:35.288Z,19.50
2022-08-19T06:47:14.588Z,19.60
2022-08-19T06:49:42.845Z,19.60
2022-08-19T06:52:14.155Z,19.50
2022-08-19T06:54:55.570Z,19.50
2022-08-19T06:57:25.111Z,19.60
2022-08-19T06:59:52.319Z,19.70
2022-08-19T07:02:21.512Z,19.70
2022-08-19T07:04:48.781Z,19.70
2022-08-19T07:07:21.968Z,19.70
2022-08-19T07:09:57.290Z,19.60
2022-08-19T07:12:36.127Z,19.60
2022-08-19T07:15:09.723Z,19.50
2022-08-19T07:17:38.271Z,19.60
2022-08-19T07:20:09.609Z,19.60
2022-08-19T07:22:40.643Z,19.60
2022-08-19T07:25:08.984Z,19.60
2022-08-19T07:27:35.916Z,19.50
2022-08-19T07:30:03.825Z,19.50
2022-08-19T07:32:31.678Z,19.50
2022-08-19T07:35:01.440Z,19.60
2022-08-19T07:37:33.080Z,19.70
2022-08-19T07:40:01.122Z,19.70
2022-08-19T07:42:30.328Z,19.70
2022-08-19T07:44:57.310Z,19.80
2022-08-19T07:47:49.106Z,19.90
2022-08-19T07:50:12.515Z,19.80
2022-08-19T07:52:40.502Z,19.80
2022-08-19T07:55:11.459Z,19.80
2022-08-19T07:57:56.819Z,19.90
2022-08-19T08:00:24.401Z,19.90
2022-08-19T08:02:55.378Z,20.00
2022-08-19T08:05:43.903Z,20.10
2022-08-19T08:08:31.007Z,20.20
2022-08-19T08:10:59.323Z,20.30
2022-08-19T08:13:26.451Z,20.40
2022-08-19T08:15:54.875Z,20.50
2022-08-19T08:18:27.797Z,20.60
2022-08-19T08:20:58.364Z,20.50
2022-08-19T08:23:26.741Z,20.40
2022-08-19T08:25:56.592Z,20.40
2022-08-19T08:28:25.466Z,20.40
2022-08-19T08:30:53.298Z,20.50
2022-08-19T08:33:33.136Z,20.50
2022-08-19T08:36:09.172Z,20.40
2022-08-19T08:38:41.317Z,20.40
2022-08-19T08:41:35.748Z,20.40
2022-08-19T08:44:05.398Z,20.50
2022-08-19T08:46:40.971Z,20.50
2022-08-19T08:49:35.450Z,20.50
2022-08-19T08:52:08.162Z,20.50
2022-08-19T08:54:49.159Z,20.60
2022-08-19T08:57:50.531Z,20.80
2022-08-19T09:00:25.025Z,20.70
2022-08-19T09:02:51.930Z,20.80
2022-08-19T09:05:22.295Z,20.80
2022-08-19T09:08:12.142Z,20.80
2022-08-19T09:10:55.395Z,20.90
2022-08-19T09:13:57.117Z,20.70
2022-08-19T09:16:27.905Z,20.50
2022-08-19T09:18:59.786Z,20.60
2022-08-19T09:21:33.017Z,20.70
2022-08-19T09:24:05.409Z,20.80
2022-08-19T09:26:48.687Z,20.90
2022-08-19T09:29:21.044Z,21.00
2022-08-19T09:31:50.447Z,21.10
2022-08-19T09:34:21.262Z,21.20
2022-08-19T09:36:55.315Z,21.10
2022-08-19T09:39:22.481Z,21.10
2022-08-19T09:41:50.826Z,21.20
2022-08-19T09:44:18.926Z,21.10
2022-08-19T09:46:47.975Z,21.00
2022-08-19T09:49:15.915Z,21.10
2022-08-19T09:51:50.345Z,21.10
2022-08-19T09:54:23.720Z,21.00
2022-08-19T09:56:52.469Z,21.10
2022-08-19T09:59:19.289Z,21.20
2022-08-19T10:01:46.116Z,21.20
2022-08-19T10:04:20.174Z,21.30
2022-08-19T10:06:53.558Z,21.50
2022-08-19T10:09:26.209Z,21.60
2022-08-19T10:12:02.715Z,21.50
2022-08-19T10:14:30.093Z,21.60
2022-08-19T10:16:59.317Z,21.80
2022-08-19T10:19:26.733Z,22.00
2022-08-19T10:21:54.320Z,22.00
2022-08-19T10:24:25.154Z,21.90
2022-08-19T10:26:57.366Z,21.90
2022-08-19T10:29:32.553Z,22.00
2022-08-19T10:32:09.878Z,22.00
2022-08-19T10:34:37.608Z,21.90
2022-08-19T10:37:15.314Z,21.90
2022-08-19T10:39:48.779Z,22.00
2022-08-19T10:42:17.149Z,22.30
2022-08-19T10:44:43.923Z,22.40
2022-08-19T10:47:17.766Z,22.50
2022-08-19T10:50:12.703Z,22.50
2022-08-19T10:52:50.385Z,22.60
2022-08-19T10:55:39.472Z,22.90
2022-08-19T10:58:15.484Z,22.90
2022-08-19T11:00:44.139Z,23.30
2022-08-19T11:03:11.483Z,23.90
2022-08-19T11:05:39.742Z,24.20
2022-08-19T11:08:22.479Z,23.90
2022-08-19T11:10:52.242Z,23.80
2022-08-19T11:13:19.023Z,23.70
2022-08-19T11:15:48.267Z,23.70
2022-08-19T11:18:14.973Z,23.20
2022-08-19T11:20:41.695Z,23.20
2022-08-19T11:23:10.726Z,23.10
2022-08-19T11:25:40.220Z,22.70
2022-08-19T11:28:07.086Z,22.70
2022-08-19T11:30:34.560Z,23.00
2022-08-19T11:33:01.939Z,23.10
2022-08-19T11:35:29.039Z,23.70
2022-08-19T11:37:57.050Z,24.30
2022-08-19T11:40:26.506Z,24.60
2022-08-19T11:42:57.488Z,24.30
2022-08-19T11:45:29.000Z,24.40
2022-08-19T11:47:56.455Z,24.70
2022-08-19T11:50:24.534Z,24.50
2022-08-19T11:52:55.395Z,24.50
2022-08-19T11:55:22.423Z,24.40
2022-08-19T11:57:49.254Z,24.40
2022-08-19T12:00:16.212Z,24.70
2022-08-19T12:02:43.468Z,25.20
2022-08-19T12:05:12.642Z,25.30
2022-08-19T12:07:43.399Z,25.40
2022-08-19T12:10:10.856Z,25.50
2022-08-19T12:12:43.343Z,25.00
2022-08-19T12:15:11.795Z,24.70
2022-08-19T12:17:39.021Z,24.40
2022-08-19T12:20:07.331Z,24.30
2022-08-19T12:22:34.154Z,23.90
2022-08-19T12:25:03.194Z,23.70
2022-08-19T12:27:35.707Z,23.90
2022-08-19T12:30:11.125Z,24.20
2022-08-19T12:32:43.113Z,24.40
2022-08-19T12:35:12.326Z,24.50
2022-08-19T12:37:40.233Z,24.50
2022-08-19T12:40:07.669Z,24.60
2022-08-19T12:42:34.478Z,24.60
2022-08-19T12:45:01.168Z,24.70
2022-08-19T12:47:27.962Z,24.80
2022-08-19T12:49:55.981Z,24.80
2022-08-19T12:52:28.147Z,24.70
2022-08-19T12:54:56.634Z,24.70
2022-08-19T12:57:32.078Z,25.10
2022-08-19T13:00:17.410Z,25.20
2022-08-19T13:02:46.634Z,25.10
2022-08-19T13:05:21.828Z,24.80
2022-08-19T13:07:53.237Z,24.80
2022-08-19T13:10:21.837Z,25.10
2022-08-19T13:12:50.343Z,25.30
2022-08-19T13:15:23.859Z,25.60
2022-08-19T13:17:53.607Z,25.50
2022-08-19T13:20:22.412Z,26.00
2022-08-19T13:22:49.718Z,26.60
2022-08-19T13:25:18.541Z,26.60
2022-08-19T13:27:45.481Z,26.50
2022-08-19T13:30:32.824Z,26.20
2022-08-19T13:33:11.732Z,26.00
2022-08-19T13:35:48.205Z,25.90
2022-08-19T13:38:21.627Z,26.60
2022-08-19T13:40:52.463Z,27.20
2022-08-19T13:43:22.793Z,26.40
2022-08-19T13:45:53.631Z,26.30
2022-08-19T13:48:21.676Z,26.10
2022-08-19T13:50:49.130Z,26.40
2022-08-19T13:53:16.799Z,26.50
2022-08-19T13:55:46.129Z,26.60
2022-08-19T13:58:14.173Z,27.10
2022-08-19T14:00:46.729Z,27.70
2022-08-19T14:03:14.719Z,28.20
2022-08-19T14:05:41.827Z,27.90
2022-08-19T14:08:09.763Z,28.10
2022-08-19T14:10:36.824Z,28.60
2022-08-19T14:13:13.408Z,28.70
2022-08-19T14:15:40.602Z,28.40
2022-08-19T14:18:10.397Z,28.20
2022-08-19T14:20:40.046Z,27.60
2022-08-19T14:23:10.206Z,27.30
2022-08-19T14:25:39.732Z,27.70
2022-08-19T14:28:12.333Z,27.30
2022-08-19T14:30:39.215Z,26.80
2022-08-19T14:33:09.554Z,26.50
2022-08-19T14:35:37.308Z,27.00
2022-08-19T14:38:08.293Z,27.00
2022-08-19T14:40:37.565Z,26.50
2022-08-19T14:43:10.797Z,26.20
2022-08-19T14:45:40.862Z,25.90
2022-08-19T14:48:12.593Z,26.10
2022-08-19T14:50:48.806Z,26.10
2022-08-19T14:53:18.220Z,26.50
2022-08-19T14:55:46.573Z,26.30
2022-08-19T14:58:29.184Z,26.20
2022-08-19T15:00:58.531Z,26.20
2022-08-19T15:03:25.290Z,25.80
2022-08-19T15:05:55.091Z,25.20
2022-08-19T15:08:25.966Z,25.00
2022-08-19T15:10:59.218Z,24.80
2022-08-19T15:13:27.973Z,24.60
2022-08-19T15:15:56.519Z,24.40
2022-08-19T15:18:26.156Z,24.60
2022-08-19T15:20:53.139Z,24.60
2022-08-19T15:23:21.931Z,24.70
2022-08-19T15:25:54.486Z,24.60
2022-08-19T15:28:22.671Z,24.50
2022-08-19T15:30:53.140Z,24.30
2022-08-19T15:33:21.233Z,24.10
2022-08-19T15:35:49.898Z,24.00
2022-08-19T15:38:19.961Z,23.90
2022-08-19T15:40:48.736Z,23.80
2022-08-19T15:43:16.850Z,23.80
2022-08-19T15:45:49.294Z,23.70
2022-08-19T15:48:16.593Z,23.60
2022-08-19T15:50:43.661Z,23.50
2022-08-19T15:53:11.053Z,23.50
2022-08-19T15:55:43.736Z,23.40
2022-08-19T15:58:32.913Z,23.30
2022-08-19T16:01:21.539Z,23.20
2022-08-19T16:04:13.706Z,23.20
2022-08-19T16:06:48.279Z,23.20
2022-08-19T16:09:16.911Z,23.20
2022-08-19T16:11:46.392Z,23.10
2022-08-19T16:14:18.656Z,23.10
2022-08-19T16:16:47.761Z,23.10
2022-08-19T16:19:17.864Z,23.10
2022-08-19T16:21:50.780Z,23.00
2022-08-19T16:24:20.123Z,22.90
2022-08-19T16:26:50.462Z,22.90
2022-08-19T16:29:33.545Z,23.00
2022-08-19T16:32:17.600Z,23.00
2022-08-19T16:34:49.966Z,23.00
2022-08-19T16:37:25.305Z,23.00
2022-08-19T16:39:55.067Z,23.00
2022-08-19T16:42:24.246Z,23.00
2022-08-19T16:44:51.597Z,22.90
2022-08-19T16:47:25.034Z,23.00
2022-08-19T16:49:55.647Z,23.10
2022-08-19T16:52:29.000Z,23.10
2022-08-19T16:54:58.891Z,23.00
2022-08-19T16:57:25.769Z,22.90
2022-08-19T16:59:54.919Z,22.90
2022-08-19T17:02:30.456Z,22.90
2022-08-19T17:04:59.022Z,22.90
2022-08-19T17:07:27.943Z,22.90
2022-08-19T17:09:57.857Z,22.90
2022-08-19T17:12:29.051Z,22.90
2022-08-19T17:15:00.013Z,22.90
2022-08-19T17:17:29.800Z,23.00
2022-08-19T17:20:00.791Z,23.00
2022-08-19T17:22:29.661Z,22.90
2022-08-19T17:25:02.098Z,22.90
2022-08-19T17:27:32.248Z,22.90
2022-08-19T17:30:03.050Z,22.90
2022-08-19T17:32:30.787Z,22.90
2022-08-19T17:35:01.106Z,22.90
2022-08-19T17:37:28.234Z,22.90
2022-08-19T17:39:55.551Z,22.90
2022-08-19T17:42:24.620Z,22.90
2022-08-19T17:44:53.972Z,22.90
2022-08-19T17:47:23.443Z,22.80
2022-08-19T17:49:50.509Z,22.80
2022-08-19T17:52:20.585Z,22.80
2022-08-19T17:54:47.830Z,22.90
2022-08-19T17:57:15.690Z,22.80
2022-08-19T17:59:45.003Z,22.80
2022-08-19T18:02:15.075Z,22.70
2022-08-19T18:04:45.536Z,22.60
2022-08-19T18:07:20.042Z,22.50
2022-08-19T18:09:54.599Z,22.50
2022-08-19T18:12:26.810Z,22.40
2022-08-19T18:14:54.279Z,22.40
2022-08-19T18:17:27.388Z,22.30
2022-08-19T18:19:54.862Z,22.30
2022-08-19T18:22:26.958Z,22.20
2022-08-19T18:24:58.319Z,22.10
2022-08-19T18:27:27.851Z,22.10
2022-08-19T18:29:59.794Z,22.10
2022-08-19T18:32:38.893Z,22.10
2022-08-19T18:35:11.044Z,22.10
2022-08-19T18:37:46.794Z,22.00
2022-08-19T18:40:37.411Z,22.00
2022-08-19T18:43:23.431Z,21.90
2022-08-19T18:46:44.033Z,21.80
2022-08-19T18:49:15.603Z,21.70
2022-08-19T18:51:45.890Z,21.70
2022-08-19T18:54:12.949Z,21.60
2022-08-19T18:56:48.089Z,21.60
2022-08-19T18:59:15.766Z,21.50
2022-08-19T19:01:52.973Z,21.50
2022-08-19T19:04:22.593Z,21.40
2022-08-19T19:06:49.745Z,21.30
2022-08-19T19:09:21.020Z,21.20
2022-08-19T19:11:55.444Z,21.10
2022-08-19T19:14:48.279Z,21.00
2022-08-19T19:17:25.827Z,21.00
2022-08-19T19:19:55.339Z,20.90
2022-08-19T19:22:26.603Z,20.90
2022-08-19T19:24:57.684Z,20.80
2022-08-19T19:27:24.627Z,20.80
2022-08-19T19:29:52.704Z,20.70
2022-08-19T19:32:29.406Z,20.70
2022-08-19T19:34:56.325Z,20.60
2022-08-19T19:37:23.376Z,20.60
2022-08-19T19:39:50.232Z,20.50
2022-08-19T19:42:27.829Z,20.50
2022-08-19T19:44:58.683Z,20.50
2022-08-19T19:47:28.488Z,20.50
2022-08-19T19:52:45.563Z,20.50
2022-08-19T19:55:17.902Z,20.30
2022-08-19T19:57:47.052Z,20.20
2022-08-19T20:00:18.883Z,20.20
2022-08-19T20:02:50.334Z,20.30
2022-08-19T20:05:21.193Z,20.30
2022-08-19T20:08:08.351Z,20.30
2022-08-19T20:10:37.105Z,20.20
2022-08-19T20:13:05.392Z,20.20
2022-08-19T20:15:33.030Z,20.10
2022-08-19T20:18:05.192Z,20.00
2022-08-19T20:20:32.113Z,20.00
2022-08-19T20:22:59.121Z,20.00
2022-08-19T20:25:26.009Z,20.10
2022-08-19T20:27:52.798Z,20.10
2022-08-19T20:30:23.153Z,20.00
2022-08-19T20:32:50.719Z,19.90
2022-08-19T20:35:22.738Z,19.80
2022-08-19T20:37:52.896Z,19.80
2022-08-19T20:40:23.110Z,19.80
2022-08-19T20:42:50.692Z,19.80
2022-08-19T20:45:33.256Z,19.90
2022-08-19T20:48:02.672Z,20.00
2022-08-19T20:50:30.544Z,20.00
2022-08-19T20:52:57.891Z,20.10
2022-08-19T20:55:26.381Z,20.10
2022-08-19T20:57:54.190Z,20.10
2022-08-19T21:00:21.075Z,20.10
2022-08-19T21:02:47.829Z,20.20
2022-08-19T21:05:14.999Z,20.20
2022-08-19T21:07:41.698Z,20.10
2022-08-19T21:10:08.567Z,20.00
2022-08-19T21:12:35.451Z,20.00
2022-08-19T21:15:02.352Z,19.90
2022-08-19T21:17:29.053Z,19.80
2022-08-19T21:19:55.752Z,19.70
2022-08-19T21:22:22.398Z,19.70
2022-08-19T21:24:49.106Z,19.70
2022-08-19T21:27:15.887Z,19.70
2022-08-19T21:29:43.115Z,19.70
2022-08-19T21:32:14.196Z,19.70
2022-08-19T21:34:43.907Z,19.70
2022-08-19T21:37:24.773Z,19.70
2022-08-19T21:39:53.447Z,19.80
2022-08-19T21:42:21.192Z,19.80
2022-08-19T21:44:48.053Z,19.70
2022-08-19T21:47:14.949Z,19.70
2022-08-19T21:49:41.704Z,19.70
2022-08-19T21:52:08.824Z,19.70
2022-08-19T21:54:38.238Z,19.70
2022-08-19T21:57:10.040Z,19.70
2022-08-19T21:59:41.196Z,19.70
2022-08-19T22:02:20.028Z,19.70
2022-08-19T22:04:48.079Z,19.70
2022-08-19T22:07:14.750Z,19.70
2022-08-19T22:09:42.882Z,19.70
2022-08-19T22:12:23.939Z,19.80
2022-08-19T22:14:51.860Z,19.70
2022-08-19T22:17:19.770Z,19.70
2022-08-19T22:19:47.029Z,19.60
2022-08-19T22:22:19.173Z,19.50
2022-08-19T22:24:45.855Z,19.50
2022-08-19T22:27:13.980Z,19.50
2022-08-19T22:29:40.749Z,19.60
2022-08-19T22:32:28.450Z,19.60
2022-08-19T22:34:58.540Z,19.60
2022-08-19T22:37:26.915Z,19.70
2022-08-19T22:39:53.708Z,19.70
2022-08-19T22:42:21.952Z,19.70
2022-08-19T22:44:49.036Z,19.70
2022-08-19T22:47:15.806Z,19.70
2022-08-19T22:49:42.710Z,19.70
2022-08-19T22:52:17.371Z,19.60
2022-08-19T22:54:50.869Z,19.50
2022-08-19T22:57:21.458Z,19.50
2022-08-19T22:59:50.564Z,19.40
2022-08-19T23:02:23.685Z,19.30
2022-08-19T23:04:51.499Z,19.20
2022-08-19T23:07:19.638Z,19.20
2022-08-19T23:09:50.803Z,19.10
2022-08-19T23:12:26.990Z,19.10
2022-08-19T23:14:53.694Z,19.00
2022-08-19T23:17:20.538Z,19.10
2022-08-19T23:19:47.307Z,19.10
2022-08-19T23:22:17.788Z,19.20
2022-08-19T23:24:44.558Z,19.20
2022-08-19T23:27:29.826Z,19.30
2022-08-19T23:30:15.089Z,19.20
2022-08-19T23:32:41.863Z,19.30
2022-08-19T23:35:08.998Z,19.30
2022-08-19T23:37:37.093Z,19.30
2022-08-19T23:40:06.658Z,19.30
2022-08-19T23:42:33.513Z,19.30
2022-08-19T23:45:06.814Z,19.30
2022-08-19T23:47:35.489Z,19.30
2022-08-19T23:50:06.344Z,19.30
2022-08-19T23:52:41.579Z,19.40
2022-08-19T23:55:08.919Z,19.30
2022-08-19T23:57:35.712Z,19.30
